Time;durP1;ratioP1;P1;durP2;ratioP2;P2;SDS_P1;SDS_P2;PMS_P1;PMS_P2;Temp;Humidity;BMP_temperature;BMP_pressure;BME280_temperature;BME280_humidity;BME280_pressure;Samples;Min_cycle;Max_cycle;Signal;HPM_P1;HPM_P2
2024/03/15 00:00:24;;;;;;;3.05;1.15;;;;;;;7.98;100.00;100196.50;5084373;28;20072;-77
2024/03/15 00:02:50;;;;;;;2.08;1.00;;;;;;;7.88;100.00;100185.44;5071189;28;20063;-79
2024/03/15 00:05:16;;;;;;;3.08;1.08;;;;;;;7.82;100.00;100188.88;5071918;28;20024;-79
2024/03/15 00:07:41;;;;;;;2.13;1.10;;;;;;;7.73;100.00;100171.50;5075292;28;20081;-78
2024/03/15 00:10:07;;;;;;;2.45;1.00;;;;;;;7.84;100.00;100200.13;5085151;28;20028;-78
2024/03/15 00:12:35;;;;;;;2.70;1.35;;;;;;;8.05;100.00;100192.06;5085287;28;20028;-78
2024/03/15 00:15:00;;;;;;;;;;;;;;;7.83;100.00;100194.00;5065999;28;20043;-78
2024/03/15 00:17:27;;;;;;;2.55;1.02;;;;;;;7.93;100.00;100188.31;5083916;28;19912;-78
2024/03/15 00:19:53;;;;;;;2.58;1.10;;;;;;;7.55;100.00;100167.53;5087503;28;20056;-78
2024/03/15 00:22:18;;;;;;;1.65;1.15;;;;;;;7.73;100.00;100177.63;5086888;28;20531;-78
2024/03/15 00:24:44;;;;;;;2.92;1.23;;;;;;;7.79;100.00;100186.63;5086715;28;20031;-78
2024/03/15 00:27:09;;;;;;;2.20;1.20;;;;;;;7.83;100.00;100185.22;5069039;28;20659;-79
2024/03/15 00:29:36;;;;;;;1.90;1.10;;;;;;;7.77;100.00;100199.28;5086883;28;20047;-79
2024/03/15 00:32:02;;;;;;;3.23;1.30;;;;;;;7.88;100.00;100196.06;5086966;28;20035;-78
2024/03/15 00:34:27;;;;;;;2.28;1.08;;;;;;;7.93;100.00;100195.47;5087037;28;20036;-78
2024/03/15 00:36:53;;;;;;;2.85;1.27;;;;;;;7.95;100.00;100177.50;5087168;28;20872;-79
2024/03/15 00:39:21;;;;;;;2.22;1.20;;;;;;;8.12;100.00;100178.78;5086915;28;20469;-78
2024/03/15 00:41:47;;;;;;;2.08;1.23;;;;;;;8.07;100.00;100177.72;5087362;28;20047;-78
2024/03/15 00:44:14;;;;;;;2.30;1.10;;;;;;;8.09;100.00;100176.53;5086539;28;20032;-78
2024/03/15 00:46:40;;;;;;;2.03;1.10;;;;;;;8.29;100.00;100165.13;5068968;28;20024;-78
2024/03/15 00:49:05;;;;;;;3.30;1.33;;;;;;;8.40;100.00;100177.84;5085975;28;20036;-78
2024/03/15 00:51:31;;;;;;;2.75;1.15;;;;;;;8.39;100.00;100161.06;5075867;28;20023;-78
2024/03/15 00:53:57;;;;;;;3.45;1.50;;;;;;;8.36;100.00;100161.47;5086891;28;20032;-77
2024/03/15 00:56:22;;;;;;;4.30;1.52;;;;;;;8.43;100.00;100162.31;5086840;28;20032;-78
2024/03/15 00:58:48;;;;;;;3.00;1.38;;;;;;;8.41;100.00;100168.88;5062144;28;20040;-78
2024/03/15 01:01:13;;;;;;;4.85;1.60;;;;;;;8.25;100.00;100170.84;5087032;28;20024;-78
2024/03/15 01:03:39;;;;;;;3.85;1.40;;;;;;;8.17;100.00;100156.91;5068276;28;20024;-78
2024/03/15 01:06:05;;;;;;;3.72;1.60;;;;;;;8.20;100.00;100164.50;5086026;28;20035;-77
2024/03/15 01:08:30;;;;;;;3.17;1.60;;;;;;;8.17;100.00;100151.59;5086866;28;20512;-79
2024/03/15 01:10:56;;;;;;;3.20;1.90;;;;;;;8.05;100.00;100165.50;5086511;28;20036;-78
2024/03/15 01:13:21;;;;;;;3.83;2.05;;;;;;;8.17;100.00;100167.53;5086671;28;20069;-78
2024/03/15 01:15:47;;;;;;;4.32;1.90;;;;;;;7.98;100.00;100154.00;5068505;28;20115;-78
2024/03/15 01:18:13;;;;;;;2.58;1.60;;;;;;;8.23;100.00;100150.81;5086324;28;20099;-78
2024/03/15 01:20:39;;;;;;;3.13;1.60;;;;;;;8.31;100.00;100147.97;5068628;28;20459;-79
2024/03/15 01:23:05;;;;;;;3.30;1.67;;;;;;;8.01;100.00;100158.13;5085856;28;20360;-78
2024/03/15 01:25:31;;;;;;;4.47;2.00;;;;;;;8.14;100.00;100165.31;5068170;28;20032;-79
2024/03/15 01:27:59;;;;;;;3.00;1.30;;;;;;;8.13;100.00;100168.97;5068022;28;20038;-78
2024/03/15 01:30:24;;;;;;;3.33;1.40;;;;;;;8.14;100.00;100178.59;5068295;28;20057;-78
2024/03/15 01:32:50;;;;;;;4.22;1.70;;;;;;;8.02;100.00;100165.06;5086425;28;20468;-78
2024/03/15 01:35:19;;;;;;;4.10;1.60;;;;;;;8.42;100.00;100173.97;5085996;28;20031;-78
2024/03/15 01:37:45;;;;;;;4.10;1.52;;;;;;;8.33;100.00;100167.19;5068386;28;20032;-78
2024/03/15 01:40:15;;;;;;;2.90;1.33;;;;;;;8.49;100.00;100173.19;5086359;28;20489;-78
2024/03/15 01:42:41;;;;;;;4.97;1.90;;;;;;;8.68;100.00;100174.22;5086170;28;20097;-78
2024/03/15 01:45:09;;;;;;;5.15;2.13;;;;;;;8.50;100.00;100170.31;5086081;28;20482;-78
2024/03/15 01:47:36;;;;;;;3.00;1.50;;;;;;;8.49;100.00;100175.84;5068155;28;20446;-78
2024/03/15 01:50:02;;;;;;;2.85;1.40;;;;;;;8.27;100.00;100146.72;5068224;28;20032;-78
2024/03/15 01:52:32;;;;;;;4.97;2.05;;;;;;;8.22;100.00;100160.63;5068194;28;20440;-78
2024/03/15 01:54:58;;;;;;;4.53;2.15;;;;;;;8.21;100.00;100168.78;5060476;28;20499;-77
2024/03/15 01:57:23;;;;;;;3.97;1.90;;;;;;;8.21;100.00;100152.84;5086524;28;20034;-78
2024/03/15 01:59:49;;;;;;;3.55;1.65;;;;;;;8.02;100.00;100136.66;5086312;28;20103;-77
2024/03/15 02:02:14;;;;;;;3.60;2.05;;;;;;;8.17;100.00;100156.91;5086039;28;20573;-78
2024/03/15 02:04:40;;;;;;;3.90;1.77;;;;;;;7.98;100.00;100126.66;5067887;28;20022;-78
2024/03/15 02:07:06;;;;;;;4.28;2.13;;;;;;;8.39;100.00;100171.69;5085794;28;20028;-78
2024/03/15 02:09:32;;;;;;;3.17;1.70;;;;;;;8.45;100.00;100167.44;5086124;28;20024;-78
2024/03/15 02:11:58;;;;;;;4.15;1.98;;;;;;;8.54;100.00;100171.56;5086116;28;20031;-79
2024/03/15 02:14:24;;;;;;;6.05;2.60;;;;;;;8.42;100.00;100173.97;5086348;28;20105;-78
2024/03/15 02:16:50;;;;;;;4.85;2.00;;;;;;;8.25;100.00;100162.03;5064165;28;20561;-79
2024/03/15 02:19:15;;;;;;;3.42;1.50;;;;;;;8.09;100.00;100149.13;5090131;28;20190;-79
2024/03/15 02:21:41;;;;;;;2.55;1.42;;;;;;;8.37;100.00;100141.84;5089623;28;20172;-78
2024/03/15 02:24:07;;;;;;;2.60;1.50;;;;;;;8.28;100.00;100164.31;5089411;28;20413;-78
2024/03/15 02:26:33;;;;;;;2.38;1.20;;;;;;;8.42;100.00;100175.84;5089224;28;20496;-78
2024/03/15 02:28:59;;;;;;;2.42;1.40;;;;;;;8.32;100.00;100154.13;5071071;28;20464;-78
2024/03/15 02:31:25;;;;;;;3.78;1.58;;;;;;;8.33;100.00;100167.19;5089821;28;20050;-79
2024/03/15 02:33:51;;;;;;;3.20;1.48;;;;;;;8.21;100.00;100153.69;5089014;28;20119;-78
2024/03/15 02:36:16;;;;;;;2.63;1.27;;;;;;;8.13;100.00;100171.63;5070730;28;20107;-78
2024/03/15 02:38:42;;;;;;;2.92;1.33;;;;;;;8.15;100.00;100159.81;5089712;28;20036;-78
2024/03/15 02:41:13;;;;;;;3.17;1.50;;;;;;;8.27;100.00;100173.28;5071183;28;20030;-79
2024/03/15 02:43:40;;;;;;;2.28;1.17;;;;;;;8.31;100.00;100153.28;5070886;28;20028;-78
2024/03/15 02:46:05;;;;;;;2.28;1.35;;;;;;;8.31;100.00;100153.28;5070769;28;20115;-78
2024/03/15 02:48:32;;;;;;;1.80;1.20;;;;;;;8.47;100.00;100162.75;5089096;28;20599;-79
2024/03/15 02:50:58;;;;;;;2.20;1.55;;;;;;;8.55;100.00;100172.38;5070858;28;20024;-78
2024/03/15 02:53:24;;;;;;;3.25;1.55;;;;;;;8.73;100.00;100161.94;5089057;28;21404;-78
2024/03/15 02:55:50;;;;;;;2.60;1.40;;;;;;;8.35;100.00;100135.91;5088645;28;20035;-79
2024/03/15 02:58:15;;;;;;;6.00;3.15;;;;;;;8.34;100.00;100166.16;5071065;28;20074;-79
2024/03/15 03:00:41;;;;;;;8.02;4.35;;;;;;;8.35;100.00;100169.63;5088809;28;20521;-79
2024/03/15 03:03:10;;;;;;;6.22;3.80;;;;;;;8.36;100.00;100147.38;5088996;28;20032;-79
2024/03/15 03:05:36;;;;;;;15.13;11.63;;;;;;;8.36;100.00;100166.78;5063510;28;20031;-78
2024/03/15 03:08:01;;;;;;;27.58;22.52;;;;;;;8.14;100.00;100152.03;5088706;28;20454;-79
2024/03/15 03:10:27;;;;;;;8.73;6.60;;;;;;;8.20;100.00;100167.16;5088660;28;20948;-78
2024/03/15 03:12:53;;;;;;;6.95;4.53;;;;;;;8.42;100.00;100171.31;5088659;28;20020;-78
2024/03/15 03:15:19;;;;;;;5.25;2.75;;;;;;;8.37;100.00;100176.38;5088419;28;20028;-78
2024/03/15 03:17:45;;;;;;;4.13;2.17;;;;;;;8.28;100.00;100159.00;5088724;28;20032;-78
2024/03/15 03:20:11;;;;;;;4.53;2.78;;;;;;;8.37;100.00;100165.75;5070423;28;20028;-79
2024/03/15 03:22:37;;;;;;;7.20;3.25;;;;;;;8.28;100.00;100156.34;5088678;28;20065;-78
2024/03/15 03:25:03;;;;;;;3.42;2.10;;;;;;;8.14;100.00;100149.38;5088153;28;20021;-79
2024/03/15 03:27:28;;;;;;;9.05;6.68;;;;;;;8.34;100.00;100166.16;5069478;28;20489;-78
2024/03/15 03:29:54;;;;;;;8.63;4.32;;;;;;;8.23;100.00;100166.75;5087819;28;20051;-79
2024/03/15 03:32:19;;;;;;;7.25;4.25;;;;;;;8.28;100.00;100174.94;5088436;28;20039;-79
2024/03/15 03:34:44;;;;;;;7.25;4.00;;;;;;;8.28;100.00;100153.69;5087802;28;20443;-79
2024/03/15 03:37:10;;;;;;;5.72;3.55;;;;;;;8.44;100.00;100148.03;5069952;28;20035;-79
2024/03/15 03:39:35;;;;;;;4.90;3.13;;;;;;;8.54;100.00;100176.03;5069830;28;20056;-79
2024/03/15 03:42:04;;;;;;;5.18;2.58;;;;;;;8.47;100.00;100140.66;5087967;28;20481;-79
2024/03/15 03:44:31;;;;;;;5.32;3.30;;;;;;;8.57;100.00;100178.28;5087577;28;20031;-78
2024/03/15 03:46:56;;;;;;;7.28;3.55;;;;;;;8.74;100.00;100179.53;5087885;28;20551;-79
2024/03/15 03:49:21;;;;;;;5.55;2.90;;;;;;;8.64;100.00;100160.50;5088182;28;20032;-78
2024/03/15 03:51:47;;;;;;;4.60;2.60;;;;;;;8.37;100.00;100167.59;5088482;28;20020;-78
2024/03/15 03:54:14;;;;;;;12.95;6.68;;;;;;;8.29;100.00;100163.28;5087671;28;20544;-78
2024/03/15 03:56:40;;;;;;;38.17;19.00;;;;;;;8.32;100.00;100159.44;5069220;28;20020;-78
2024/03/15 03:59:06;;;;;;;31.40;17.33;;;;;;;8.16;100.00;100168.59;5087487;28;20047;-79
2024/03/15 04:01:33;;;;;;;23.70;12.48;;;;;;;7.95;100.00;100162.38;5069475;28;20020;-78
2024/03/15 04:03:59;;;;;;;16.80;9.85;;;;;;;7.98;100.00;100169.13;5069223;28;20028;-78
2024/03/15 04:06:24;;;;;;;15.75;8.52;;;;;;;7.76;100.00;100118.81;5085641;28;20063;-78
2024/03/15 04:08:49;;;;;;;10.60;6.00;;;;;;;7.97;100.00;100152.38;5087704;28;20032;-78
2024/03/15 04:11:15;;;;;;;9.23;3.72;;;;;;;7.57;100.00;100136.28;5087239;28;20024;-78
2024/03/15 04:13:40;;;;;;;11.27;6.28;;;;;;;7.38;100.00;100115.81;5086916;28;20088;-79
2024/03/15 04:16:06;;;;;;;20.85;11.27;;;;;;;7.46;100.00;100139.53;5087048;28;20035;-79
2024/03/15 04:18:34;;;;;;;14.68;7.85;;;;;;;7.72;100.00;100159.22;5069206;28;20122;-78
2024/03/15 04:21:00;;;;;;;;;;;;;;;7.75;100.00;100166.81;5069418;28;20024;-78
2024/03/15 04:23:25;;;;;;;8.35;4.28;;;;;;;7.97;100.00;100165.66;5087133;28;20029;-79
2024/03/15 04:25:51;;;;;;;8.55;4.55;;;;;;;8.00;100.00;100167.91;5087064;28;20048;-79
2024/03/15 04:28:19;;;;;;;10.13;4.18;;;;;;;7.86;100.00;100155.59;5068486;28;20087;-79
2024/03/15 04:30:45;;;;;;;24.65;15.38;;;;;;;7.96;100.00;100158.69;5086889;28;20020;-79
2024/03/15 04:33:11;;;;;;;12.23;6.65;;;;;;;7.53;100.00;100134.25;5086875;28;20039;-78
2024/03/15 04:35:36;;;;;;;7.88;4.45;;;;;;;7.37;100.00;100146.00;5068826;28;20028;-78
2024/03/15 04:38:03;;;;;;;10.23;5.63;;;;;;;7.38;100.00;100158.25;5068569;28;20126;-78
2024/03/15 04:40:30;;;;;;;13.23;5.28;;;;;;;6.99;100.00;100149.03;5086517;28;20031;-79
2024/03/15 04:42:56;;;;;;;7.13;3.72;;;;;;;6.93;100.00;100123.28;5087021;28;20032;-79
2024/03/15 04:45:22;;;;;;;10.27;4.03;;;;;;;7.11;100.00;100167.84;5068588;28;20032;-79
2024/03/15 04:47:48;;;;;;;7.97;4.13;;;;;;;7.34;100.00;100186.19;5086605;28;20039;-79
2024/03/15 04:50:15;;;;;;;12.55;8.18;;;;;;;6.98;100.00;100163.28;5086941;28;20062;-78
2024/03/15 04:52:42;;;;;;;50.08;33.20;;;;;;;7.08;100.00;100171.72;5086520;28;20455;-79
2024/03/15 04:55:11;;;;;;;202.95;117.35;;;;;;;7.04;100.00;100197.00;5086294;28;20099;-79
2024/03/15 04:57:38;;;;;;;333.48;177.98;;;;;;;6.92;100.00;100169.34;5067936;28;20032;-79
2024/03/15 05:00:20;;;;;;;330.17;158.20;;;;;;;7.07;100.00;100193.97;5086014;28;20028;-78
2024/03/15 05:02:49;;;;;;;231.52;143.30;;;;;;;6.81;100.00;100184.78;5084141;28;20031;-78
2024/03/15 05:05:15;;;;;;;135.27;67.05;;;;;;;6.75;100.00;100179.44;5073855;28;20016;-79
2024/03/15 05:07:42;;;;;;;202.70;119.25;;;;;;;6.94;100.00;100201.81;5083434;28;20028;-79
2024/03/15 05:10:09;;;;;;;199.60;158.77;;;;;;;7.00;100.00;100175.34;5085987;28;20104;-78
2024/03/15 05:12:35;;;;;;;151.25;135.43;;;;;;;7.06;100.00;100196.81;5073705;28;20032;-79
2024/03/15 05:15:01;;;;;;;94.15;84.57;;;;;;;7.13;100.00;100176.44;5067584;28;20057;-79
2024/03/15 05:17:27;;;;;;;40.78;36.42;;;;;;;7.00;100.00;100174.53;5076188;28;20028;-78
2024/03/15 05:19:52;;;;;;;28.23;21.95;;;;;;;7.27;100.00;100203.88;5086417;28;20107;-78
2024/03/15 05:22:18;;;;;;;19.92;12.00;;;;;;;7.23;100.00;100198.97;5086370;28;20143;-79
2024/03/15 05:24:43;;;;;;;11.70;7.30;;;;;;;7.35;100.00;100195.78;5086034;28;20099;-79
2024/03/15 05:27:09;;;;;;;11.77;8.20;;;;;;;7.48;100.00;100213.59;5085193;28;20028;-79
2024/03/15 05:29:38;;;;;;;10.52;7.68;;;;;;;7.31;100.00;100187.38;5086401;28;20079;-78
2024/03/15 05:32:04;;;;;;;;;;;;;;;7.59;100.00;100213.88;5086799;28;20036;-78
2024/03/15 05:34:31;;;;;;;11.38;6.78;;;;;;;7.69;100.00;100207.41;5068259;28;20342;-78
2024/03/15 05:36:56;;;;;;;8.77;3.80;;;;;;;7.57;100.00;100205.28;5085978;28;20115;-78
2024/03/15 05:39:22;;;;;;;9.18;7.20;;;;;;;7.65;100.00;100206.97;5086403;28;20077;-79
2024/03/15 05:41:47;;;;;;;16.02;13.43;;;;;;;7.75;100.00;100222.56;5086170;28;20043;-78
2024/03/15 05:44:13;;;;;;;13.38;8.55;;;;;;;7.57;100.00;100209.78;5086464;28;20028;-79
2024/03/15 05:46:38;;;;;;;19.45;14.32;;;;;;;7.84;100.00;100222.19;5085827;28;20044;-79
2024/03/15 05:49:03;;;;;;;18.35;11.88;;;;;;;7.97;100.00;100213.47;5086211;28;20016;-78
2024/03/15 05:51:32;;;;;;;11.32;6.00;;;;;;;8.11;100.00;100226.78;5070217;28;20043;-79
2024/03/15 05:53:57;;;;;;;15.25;10.27;;;;;;;8.13;100.00;100219.44;5088969;28;20024;-79
2024/03/15 05:56:25;;;;;;;10.18;5.38;;;;;;;8.37;100.00;100215.44;5087948;28;20032;-79
2024/03/15 05:58:51;;;;;;;15.75;9.27;;;;;;;8.36;100.00;100217.28;5063693;28;20064;-79
2024/03/15 06:01:17;;;;;;;10.40;5.90;;;;;;;8.36;100.00;100222.59;5090104;28;20457;-78
2024/03/15 06:03:43;;;;;;;6.05;3.88;;;;;;;8.66;100.00;100240.88;5089840;28;20560;-78
2024/03/15 06:06:08;;;;;;;7.57;3.83;;;;;;;8.55;100.00;100230.84;5089319;28;20032;-77
2024/03/15 06:08:35;;;;;;;19.20;15.13;;;;;;;13.46;100.00;100253.22;5089695;28;20031;-78
2024/03/15 06:11:00;;;;;;;9.18;5.13;;;;;;;12.85;84.42;100253.38;5088632;28;20460;-78
2024/03/15 06:13:26;;;;;;;12.70;9.48;;;;;;;12.25;92.65;100258.72;5089590;28;20020;-79
2024/03/15 06:15:51;;;;;;;21.50;19.45;;;;;;;12.26;96.11;100229.09;5071071;28;20032;-79
2024/03/15 06:18:17;;;;;;;8.98;6.82;;;;;;;12.10;91.63;100263.66;5089683;28;20028;-79
2024/03/15 06:20:42;;;;;;;10.63;8.27;;;;;;;13.90;96.27;100248.28;5087101;28;20028;-78
2024/03/15 06:23:08;;;;;;;7.65;4.60;;;;;;;12.83;89.05;100249.25;5068406;28;20549;-78
2024/03/15 06:25:34;;;;;;;8.85;5.45;;;;;;;11.57;93.43;100252.47;5089315;28;20052;-78
2024/03/15 06:28:06;;;;;;;13.00;6.75;;;;;;;11.64;99.34;100277.22;5088638;28;20056;-79
2024/03/15 06:30:34;;;;;;;5.55;3.53;;;;;;;11.38;95.92;100237.44;5071086;28;20081;-78
2024/03/15 06:33:02;;;;;;;10.50;5.88;;;;;;;10.85;98.39;100271.53;5082103;28;20032;-78
2024/03/15 06:35:27;;;;;;;8.10;4.97;;;;;;;12.27;100.00;100272.69;5082671;28;20028;-79
2024/03/15 06:38:06;;;;;;;6.45;4.32;;;;;;;11.00;98.04;100273.06;5088826;28;20039;-78
2024/03/15 06:40:42;;;;;;;8.55;4.70;;;;;;;11.56;96.55;100266.84;5087843;28;20016;-78
2024/03/15 06:48:18;;;;;;;5.68;3.88;;;;;;;11.11;99.55;100248.34;5087737;28;20060;-78
2024/03/15 06:51:00;;;;;;;4.55;2.65;;;;;;;10.59;100.00;100269.84;5086056;28;20400;-79
2024/03/15 06:53:26;;;;;;;7.82;3.35;;;;;;;10.98;100.00;100264.47;5060184;28;20059;-79
2024/03/15 06:55:51;;;;;;;10.45;3.47;;;;;;;11.85;89.92;100259.16;5081389;28;20123;-78
2024/03/15 06:58:17;;;;;;;4.65;2.55;;;;;;;12.70;87.10;100277.03;5063810;28;20031;-79
2024/03/15 07:00:42;;;;;;;8.00;6.15;;;;;;;12.00;95.36;100251.63;5058813;28;20451;-79
2024/03/15 07:03:08;;;;;;;5.60;2.50;;;;;;;12.59;83.74;100285.84;5084376;28;20668;-78
2024/03/15 07:05:33;;;;;;;3.75;2.05;;;;;;;12.68;89.65;100259.59;5089086;28;20099;-79
2024/03/15 07:07:59;;;;;;;4.88;3.42;;;;;;;13.08;83.24;100291.94;5088380;28;20810;-79
2024/03/15 07:10:25;;;;;;;5.53;2.80;;;;;;;13.25;78.32;100300.13;5089137;28;20024;-79
2024/03/15 07:12:51;;;;;;;5.82;2.70;;;;;;;13.90;80.05;100285.03;5088979;28;20036;-79
2024/03/15 07:15:18;;;;;;;5.10;2.35;;;;;;;13.60;79.83;100273.38;5088844;28;20028;-76
2024/03/15 07:17:45;;;;;;;10.63;7.22;;;;;;;13.30;77.50;100264.63;5088966;28;20119;-78
2024/03/15 07:20:12;;;;;;;4.38;2.35;;;;;;;14.20;72.15;100276.78;5088879;28;20028;-78
2024/03/15 07:22:41;;;;;;;7.35;2.83;;;;;;;14.03;75.50;100274.81;5088764;28;20031;-78
2024/03/15 07:25:10;;;;;;;4.30;2.67;;;;;;;15.23;73.93;100293.72;5088479;28;20675;-77
2024/03/15 07:27:37;;;;;;;6.38;3.55;;;;;;;14.53;77.29;100294.06;5088509;28;20402;-78
2024/03/15 07:30:05;;;;;;;6.80;3.88;;;;;;;14.60;74.07;100290.19;5088994;28;20165;-78
2024/03/15 07:32:35;;;;;;;7.25;4.18;;;;;;;14.54;74.42;100290.31;5089098;28;20554;-78
2024/03/15 07:35:01;;;;;;;8.80;6.07;;;;;;;14.16;70.80;100287.19;5088289;28;20549;-78
2024/03/15 07:37:27;;;;;;;11.63;4.93;;;;;;;13.59;74.74;100285.16;5088319;28;20036;-78
2024/03/15 07:39:53;;;;;;;9.40;5.50;;;;;;;12.88;78.05;100261.97;5089240;28;20027;-78
2024/03/15 07:42:19;;;;;;;9.15;5.68;;;;;;;13.37;83.47;100259.97;5089427;28;20023;-79
2024/03/15 07:44:48;;;;;;;9.10;5.88;;;;;;;13.32;81.02;100262.53;5094685;28;20028;-78
2024/03/15 07:47:14;;;;;;;10.95;7.18;;;;;;;13.35;80.59;100267.44;5082479;28;20042;-78
2024/03/15 07:49:40;;;;;;;8.27;5.75;;;;;;;13.01;75.53;100270.59;5082223;28;20036;-78
2024/03/15 07:52:05;;;;;;;8.63;5.72;;;;;;;13.31;76.47;100267.09;5100292;28;20096;-79
2024/03/15 07:54:30;;;;;;;10.00;5.50;;;;;;;14.02;83.12;100251.75;5099360;28;20366;-79
2024/03/15 07:56:56;;;;;;;9.15;5.95;;;;;;;14.61;74.67;100280.31;5098967;28;20028;-80
2024/03/15 07:59:22;;;;;;;9.38;6.10;;;;;;;14.26;73.19;100254.34;5099273;28;20082;-78
2024/03/15 08:01:47;;;;;;;10.68;5.97;;;;;;;14.40;73.44;100262.94;5081179;28;20035;-78
2024/03/15 08:04:14;;;;;;;8.82;5.50;;;;;;;14.67;72.95;100263.22;5099131;28;20438;-79
2024/03/15 08:06:39;;;;;;;10.73;7.00;;;;;;;14.64;69.36;100266.38;5099918;28;20088;-78
2024/03/15 08:09:05;;;;;;;9.20;6.40;;;;;;;14.28;76.00;100271.03;5098561;28;20059;-79
2024/03/15 08:11:34;;;;;;;11.82;7.03;;;;;;;13.75;72.22;100266.72;5099019;28;20118;-77
2024/03/15 08:14:08;;;;;;;10.55;6.50;;;;;;;14.62;77.44;100265.81;5080201;28;20028;-78
2024/03/15 08:16:33;;;;;;;10.38;7.22;;;;;;;14.51;74.75;100266.66;5098500;28;20043;-77
2024/03/15 08:19:07;;;;;;;9.93;6.82;;;;;;;14.59;69.72;100275.16;5097833;28;20028;-77
2024/03/15 08:21:33;;;;;;;11.32;7.28;;;;;;;14.51;71.65;100242.50;5098295;28;20043;-77
2024/03/15 08:24:09;;;;;;;10.65;7.63;;;;;;;14.39;70.35;100272.06;5080827;28;20028;-77
2024/03/15 08:26:36;;;;;;;9.95;6.63;;;;;;;15.04;72.03;100244.00;5098280;28;20020;-78
2024/03/15 08:29:02;;;;;;;11.40;7.60;;;;;;;15.07;68.65;100273.03;5096061;28;20091;-78
2024/03/15 08:31:29;;;;;;;11.85;7.90;;;;;;;15.50;67.38;100265.38;5093318;28;20065;-78
2024/03/15 08:33:55;;;;;;;10.35;7.47;;;;;;;15.45;67.84;100252.69;5091662;28;20039;-78
2024/03/15 08:36:24;;;;;;;12.77;8.10;;;;;;;15.42;69.51;100253.16;5090774;28;20024;-78
2024/03/15 08:38:49;;;;;;;12.05;8.10;;;;;;;15.43;67.70;100247.53;5089165;28;20028;-79
2024/03/15 08:41:15;;;;;;;12.52;8.85;;;;;;;15.24;65.99;100248.84;5088509;28;20459;-78
2024/03/15 08:43:40;;;;;;;13.25;9.27;;;;;;;15.55;64.26;100233.19;5087423;28;20118;-78
2024/03/15 08:46:06;;;;;;;14.77;9.50;;;;;;;15.64;63.74;100221.75;5088146;28;20103;-78
2024/03/15 08:48:31;;;;;;;12.68;9.15;;;;;;;15.81;62.19;100239.75;5088253;28;20075;-78
2024/03/15 08:50:57;;;;;;;14.57;9.23;;;;;;;15.48;61.82;100249.47;5087912;28;20432;-78
2024/03/15 08:53:26;;;;;;;13.70;9.23;;;;;;;15.74;59.49;100236.44;5087854;28;20032;-79
2024/03/15 08:55:52;;;;;;;12.55;8.88;;;;;;;15.17;65.92;100230.22;5087537;28;20024;-79
2024/03/15 08:58:17;;;;;;;14.23;9.70;;;;;;;15.05;72.73;100189.19;5086992;28;20489;-79
2024/03/15 09:00:43;;;;;;;14.07;9.55;;;;;;;15.78;66.14;100229.50;5069338;28;20035;-78
2024/03/15 09:03:09;;;;;;;13.20;9.18;;;;;;;14.94;60.73;100198.19;5087234;28;20036;-78
2024/03/15 09:05:38;;;;;;;15.20;9.65;;;;;;;15.14;61.78;100240.63;5086920;28;20095;-78
2024/03/15 09:08:09;;;;;;;13.27;9.13;;;;;;;15.06;63.36;100223.88;5086959;28;20042;-78
2024/03/15 09:10:35;;;;;;;14.93;9.80;;;;;;;15.51;64.34;100208.69;5087268;28;20024;-77
2024/03/15 09:13:00;;;;;;;14.98;10.30;;;;;;;15.24;60.70;100225.50;5068839;28;20101;-77
2024/03/15 09:15:26;;;;;;;13.10;9.00;;;;;;;15.46;57.06;100217.47;5068313;28;20494;-78
2024/03/15 09:17:52;;;;;;;15.43;9.30;;;;;;;16.26;60.88;100219.84;5068358;28;20501;-77
2024/03/15 09:22:49;;;;;;;15.75;10.50;;;;;;;15.81;55.99;100210.16;5086780;28;20602;-79
2024/03/15 09:25:19;;;;;;;13.70;9.93;;;;;;;15.70;59.59;100206.50;5087053;28;20102;-78
2024/03/15 09:27:48;;;;;;;14.90;9.77;;;;;;;15.78;58.10;100214.19;5089402;28;20893;-78
2024/03/15 09:30:16;;;;;;;16.13;9.63;;;;;;;15.37;60.95;100191.28;5090741;28;20032;-78
2024/03/15 09:32:45;;;;;;;16.52;10.38;;;;;;;16.22;60.89;100181.03;5072293;28;20078;-76
2024/03/15 09:35:13;;;;;;;14.45;9.70;;;;;;;15.77;59.48;100187.53;5090943;28;20034;-78
2024/03/15 09:37:46;;;;;;;13.00;9.77;;;;;;;15.65;55.87;100204.56;5090376;28;20036;-78
2024/03/15 09:40:15;;;;;;;12.65;9.45;;;;;;;15.72;56.94;100179.38;5090422;28;20036;-79
2024/03/15 09:42:41;;;;;;;;;;;;;;;16.27;58.67;100194.56;5090817;28;20089;-79
2024/03/15 09:45:07;;;;;;;14.05;9.25;;;;;;;16.76;55.13;100199.06;5069825;28;20324;-79
2024/03/15 09:47:32;;;;;;;13.13;9.77;;;;;;;16.88;52.70;100178.19;5068531;28;20028;-79
2024/03/15 09:50:01;;;;;;;13.45;9.35;;;;;;;16.50;54.98;100198.81;5086673;28;20028;-78
2024/03/15 09:52:26;;;;;;;15.13;9.77;;;;;;;15.91;56.28;100180.72;5090497;28;20039;-79
2024/03/15 09:54:51;;;;;;;14.65;9.40;;;;;;;16.21;55.32;100184.81;5087958;28;20036;-78
2024/03/15 09:57:18;;;;;;;13.85;9.43;;;;;;;15.77;59.81;100174.91;5089751;28;20019;-79
2024/03/15 09:59:43;;;;;;;15.48;10.32;;;;;;;16.02;55.60;100166.31;5090132;28;20032;-78
2024/03/15 10:02:23;;;;;;;14.25;9.00;;;;;;;16.95;56.38;100180.66;5090163;28;20028;-78
2024/03/15 10:04:51;;;;;;;13.55;9.52;;;;;;;17.40;53.63;100179.31;5088505;28;20035;-78
2024/03/15 10:07:16;;;;;;;;;;;;;;;17.44;52.80;100186.63;5090157;28;20059;-78
2024/03/15 10:09:42;;;;;;;13.82;9.38;;;;;;;17.96;51.93;100168.81;5071360;28;19969;-78
2024/03/15 10:12:10;;;;;;;13.55;10.00;;;;;;;17.97;50.12;100186.63;5089464;28;20059;-78
2024/03/15 10:14:36;;;;;;;;;;;;;;;17.29;51.15;100174.97;5089909;28;20062;-79
2024/03/15 10:17:03;;;;;;;14.00;9.27;;;;;;;16.95;56.05;100151.81;5089736;28;19916;-78
2024/03/15 10:19:30;;;;;;;13.73;9.15;;;;;;;17.25;54.84;100153.09;5087431;28;20460;-77
2024/03/15 10:21:59;;;;;;;12.68;8.82;;;;;;;17.87;55.11;100170.38;5051580;28;20547;-79
2024/03/15 10:24:24;;;;;;;16.58;10.38;;;;;;;17.98;50.78;100161.25;5069902;28;20546;-78
2024/03/15 10:26:51;;;;;;;12.70;8.93;;;;;;;17.77;48.63;100152.25;5077772;28;20550;-79
2024/03/15 10:29:16;;;;;;;13.13;8.75;;;;;;;17.63;47.34;100151.09;5088957;28;20060;-78
2024/03/15 10:31:42;;;;;;;12.70;9.05;;;;;;;17.55;49.81;100138.97;5072069;28;20020;-78
2024/03/15 10:34:12;;;;;;;11.68;8.13;;;;;;;17.82;48.98;100162.25;5089160;28;20097;-78
2024/03/15 10:36:38;;;;;;;11.82;8.20;;;;;;;17.71;48.55;100125.53;5088686;28;20024;-78
2024/03/15 10:39:04;;;;;;;14.40;8.18;;;;;;;18.15;48.30;100141.34;5088682;28;20523;-78
2024/03/15 10:41:32;;;;;;;13.35;8.68;;;;;;;18.62;46.12;100148.41;5089007;28;20024;-78
2024/03/15 10:44:00;;;;;;;12.93;9.32;;;;;;;18.16;48.22;100145.63;5089303;28;20028;-78
2024/03/15 10:46:26;;;;;;;11.75;8.68;;;;;;;18.13;45.28;100156.97;5088703;28;20829;-78
2024/03/15 10:48:52;;;;;;;12.98;8.40;;;;;;;18.07;45.25;100129.97;5075475;28;20044;-78
2024/03/15 10:51:19;;;;;;;13.30;8.45;;;;;;;18.67;46.41;100137.56;5088969;28;20024;-78
2024/03/15 10:53:46;;;;;;;12.65;8.68;;;;;;;18.92;47.34;100125.97;5066231;28;20123;-77
2024/03/15 10:56:12;;;;;;;12.40;9.20;;;;;;;19.30;42.55;100142.63;5088943;28;20125;-78
2024/03/15 10:58:37;;;;;;;14.80;9.80;;;;;;;19.66;43.52;100137.09;5070536;28;20053;-78
2024/03/15 11:01:03;;;;;;;13.48;9.35;;;;;;;19.57;41.05;100126.03;5070652;28;20148;-77
2024/03/15 11:03:31;;;;;;;11.30;8.00;;;;;;;19.01;46.99;100126.22;5081737;28;20039;-77
2024/03/15 11:06:03;;;;;;;10.77;8.18;;;;;;;19.65;41.48;100125.47;5088680;28;20062;-78
2024/03/15 11:08:34;;;;;;;11.40;7.35;;;;;;;18.68;41.31;100131.91;5086354;28;20055;-79
2024/03/15 11:11:01;;;;;;;11.98;7.32;;;;;;;18.87;42.16;100123.28;5088438;28;20046;-78
2024/03/15 11:13:33;;;;;;;10.45;6.93;;;;;;;19.50;39.12;100128.25;5088249;28;20410;-77
2024/03/15 11:15:58;;;;;;;10.82;7.75;;;;;;;19.35;38.20;100125.59;5087470;28;20097;-77
2024/03/15 11:18:33;;;;;;;12.93;8.20;;;;;;;19.45;39.20;100120.97;5088295;28;20474;-78
2024/03/15 11:20:59;;;;;;;11.60;7.80;;;;;;;19.39;38.55;100126.66;5088451;28;20032;-78
2024/03/15 11:23:26;;;;;;;10.95;7.47;;;;;;;19.07;37.68;100092.69;5088367;28;20042;-78
2024/03/15 11:25:54;;;;;;;11.55;7.85;;;;;;;20.15;35.08;100132.81;5067924;28;20033;-77